Aviation Digital Data Service (ADDS)

Output produced by METARs form (1747 UTC 21 September 2019)
found at http://aviationweather.gov/metar/data/
 
KJQF 211650Z 28005KT 10SM CLR 29/12 A3032